Time;durP1;ratioP1;P1;durP2;ratioP2;P2;SDS_P1;SDS_P2;PMS_P1;PMS_P2;Temp;Humidity;BMP_temperature;BMP_pressure;BME280_temperature;BME280_humidity;BME280_pressure;Samples;Min_cycle;Max_cycle;Signal;HPM_P1;HPM_P2
2021/07/07 00:02:23;;;;;;;3.85;0.90;;;14.70;96.30;;;;;;5022570;28;19913;-66
2021/07/07 00:04:50;;;;;;;2.58;1.10;;;14.70;96.40;;;;;;5027569;28;20039;-66
2021/07/07 00:07:16;;;;;;;3.85;1.30;;;14.70;96.40;;;;;;5033310;28;20028;-66
2021/07/07 00:09:42;;;;;;;2.28;1.02;;;14.70;96.40;;;;;;5033232;28;20427;-66
2021/07/07 00:12:08;;;;;;;3.28;1.00;;;14.60;96.40;;;;;;5024781;28;20025;-66
2021/07/07 00:14:33;;;;;;;4.90;1.17;;;14.60;96.50;;;;;;5033357;28;20033;-66
2021/07/07 00:16:59;;;;;;;4.15;1.13;;;14.60;96.50;;;;;;5019761;28;20092;-66
2021/07/07 00:19:24;;;;;;;2.47;1.30;;;14.50;96.50;;;;;;5019115;28;20043;-66
2021/07/07 00:21:50;;;;;;;2.92;1.10;;;14.50;96.60;;;;;;5032092;28;20029;-66
2021/07/07 00:24:15;;;;;;;5.40;1.33;;;14.40;96.60;;;;;;5030191;28;20033;-65
2021/07/07 00:26:41;;;;;;;6.47;1.80;;;14.40;96.70;;;;;;5032006;28;20025;-65
2021/07/07 00:29:06;;;;;;;3.47;1.65;;;14.30;96.70;;;;;;5028743;28;20049;-66
2021/07/07 00:31:32;;;;;;;5.03;1.65;;;14.20;96.80;;;;;;5022230;28;20026;-66
2021/07/07 00:33:57;;;;;;;4.38;1.90;;;14.10;96.80;;;;;;5028242;28;20105;-66
2021/07/07 00:36:26;;;;;;;3.33;1.95;;;14.10;96.90;;;;;;5025947;28;20017;-66
2021/07/07 00:38:51;;;;;;;4.38;1.40;;;14.10;97.00;;;;;;5033977;28;20025;-65
2021/07/07 00:41:17;;;;;;;3.20;1.63;;;14.00;97.10;;;;;;5028691;28;20029;-65
2021/07/07 00:43:43;;;;;;;5.05;1.60;;;14.00;97.10;;;;;;5029592;28;20068;-65
2021/07/07 00:46:08;;;;;;;3.45;1.55;;;14.00;97.20;;;;;;5031785;28;20108;-66
2021/07/07 00:48:34;;;;;;;3.70;1.77;;;14.00;97.20;;;;;;5027813;28;20026;-65
2021/07/07 00:50:59;;;;;;;5.80;1.65;;;13.90;97.30;;;;;;5016926;28;20091;-65
2021/07/07 00:53:26;;;;;;;4.72;2.25;;;13.90;97.30;;;;;;5033797;28;20105;-66
2021/07/07 00:55:54;;;;;;;7.85;1.30;;;13.90;97.40;;;;;;5030972;28;20025;-65
2021/07/07 00:58:22;;;;;;;5.63;2.05;;;13.80;97.50;;;;;;5032381;28;20132;-65
2021/07/07 01:00:47;;;;;;;5.53;2.05;;;13.80;97.50;;;;;;5030019;28;20087;-65
2021/07/07 01:03:13;;;;;;;6.15;2.30;;;13.80;97.50;;;;;;5025432;28;20677;-66
2021/07/07 01:05:38;;;;;;;5.07;2.00;;;13.80;97.50;;;;;;5016988;28;20403;-66
2021/07/07 01:08:04;;;;;;;7.53;1.88;;;13.70;97.50;;;;;;5033282;28;20025;-65
2021/07/07 01:10:30;;;;;;;4.78;1.75;;;13.70;97.60;;;;;;5030332;28;20387;-66
2021/07/07 01:12:55;;;;;;;5.57;2.20;;;13.70;97.70;;;;;;5027583;28;20184;-65
2021/07/07 01:15:23;;;;;;;4.65;1.95;;;13.70;97.70;;;;;;5030815;28;20045;-66
2021/07/07 01:17:49;;;;;;;3.83;2.30;;;13.60;97.70;;;;;;5032906;28;20419;-65
2021/07/07 01:20:18;;;;;;;9.40;2.92;;;13.60;97.80;;;;;;5033106;28;20017;-66
2021/07/07 01:22:44;;;;;;;4.22;1.98;;;13.60;97.80;;;;;;5028530;28;20022;-65
2021/07/07 01:25:11;;;;;;;4.70;1.98;;;13.60;97.90;;;;;;5028341;28;20033;-66
2021/07/07 01:27:39;;;;;;;2.95;1.77;;;13.60;97.90;;;;;;5024351;28;20029;-65
2021/07/07 01:30:07;;;;;;;4.72;2.20;;;13.60;97.90;;;;;;5029919;28;20021;-65
2021/07/07 01:32:33;;;;;;;6.53;2.15;;;13.60;97.90;;;;;;5030871;28;20025;-65
2021/07/07 01:34:59;;;;;;;3.50;1.77;;;13.50;97.90;;;;;;5032127;28;20112;-65
2021/07/07 01:37:26;;;;;;;4.65;2.22;;;13.50;97.90;;;;;;5029623;28;20475;-65
2021/07/07 01:39:52;;;;;;;6.22;2.25;;;13.50;98.00;;;;;;5031721;28;20366;-66
2021/07/07 01:42:18;;;;;;;6.35;2.47;;;13.40;97.90;;;;;;5030724;28;20056;-65
2021/07/07 01:44:44;;;;;;;3.58;2.45;;;13.40;97.90;;;;;;5032628;28;20025;-65
2021/07/07 01:47:09;;;;;;;4.03;2.05;;;13.40;98.20;;;;;;5029514;28;20052;-66
2021/07/07 01:49:35;;;;;;;5.32;2.38;;;13.40;98.00;;;;;;5016834;28;20072;-66
2021/07/07 01:52:00;;;;;;;6.28;2.50;;;13.40;98.00;;;;;;5022899;28;20033;-66
2021/07/07 01:54:26;;;;;;;6.30;2.47;;;13.40;98.00;;;;;;5031753;28;20030;-65
2021/07/07 01:56:51;;;;;;;5.82;2.15;;;13.40;98.00;;;;;;5027985;28;20022;-66
2021/07/07 01:59:17;;;;;;;5.72;2.58;;;13.40;98.10;;;;;;5019276;28;20022;-65
2021/07/07 02:01:43;;;;;;;3.67;2.28;;;13.40;98.10;;;;;;5025856;28;20028;-66
2021/07/07 02:04:08;;;;;;;4.32;2.50;;;13.30;98.10;;;;;;5030455;28;20017;-65
2021/07/07 02:06:35;;;;;;;5.68;2.40;;;13.30;98.10;;;;;;5027383;28;20104;-66
2021/07/07 02:09:01;;;;;;;7.88;2.33;;;13.30;98.20;;;;;;5029446;28;20022;-66
2021/07/07 02:11:26;;;;;;;5.63;3.50;;;13.30;98.20;;;;;;5031054;28;20049;-65
2021/07/07 02:13:52;;;;;;;5.25;2.67;;;13.30;98.20;;;;;;5031991;28;20029;-65
2021/07/07 02:16:17;;;;;;;3.35;1.90;;;13.20;98.20;;;;;;5025741;28;20465;-65
2021/07/07 02:18:43;;;;;;;6.68;2.70;;;13.20;98.30;;;;;;5030389;28;20035;-66
2021/07/07 02:21:09;;;;;;;7.22;2.60;;;13.20;98.30;;;;;;5029866;28;20104;-65
2021/07/07 02:23:34;;;;;;;6.75;2.67;;;13.20;98.20;;;;;;5030755;28;20025;-65
2021/07/07 02:26:00;;;;;;;4.25;2.40;;;13.10;98.20;;;;;;5019916;28;20652;-66
2021/07/07 02:28:25;;;;;;;5.70;2.78;;;13.10;98.20;;;;;;5032166;28;20034;-65
2021/07/07 02:30:56;;;;;;;5.18;2.53;;;13.10;98.30;;;;;;5034149;28;20025;-65
2021/07/07 02:33:23;;;;;;;5.55;2.95;;;13.00;98.40;;;;;;5031145;28;20087;-66
2021/07/07 02:35:48;;;;;;;5.57;2.97;;;13.00;98.40;;;;;;5031219;28;20033;-66
2021/07/07 02:38:18;;;;;;;6.22;2.80;;;13.00;98.40;;;;;;5034050;28;20038;-66
2021/07/07 02:40:44;;;;;;;8.00;3.38;;;13.00;98.40;;;;;;5034318;28;20483;-65
2021/07/07 02:43:10;;;;;;;4.18;3.13;;;13.00;98.50;;;;;;5034041;28;20128;-65
2021/07/07 02:45:39;;;;;;;9.45;2.97;;;12.90;98.40;;;;;;5034646;28;20030;-65
2021/07/07 02:48:05;;;;;;;5.15;3.13;;;12.90;98.40;;;;;;5029696;28;20375;-66
2021/07/07 02:50:31;;;;;;;7.32;4.00;;;12.90;98.50;;;;;;5016464;28;20481;-66
2021/07/07 02:52:57;;;;;;;4.30;3.33;;;13.00;98.50;;;;;;5028304;28;20026;-66
2021/07/07 02:55:23;;;;;;;5.88;3.63;;;13.00;98.60;;;;;;5026955;28;20502;-65
2021/07/07 02:57:56;;;;;;;5.90;4.45;;;13.00;98.60;;;;;;5034558;28;20032;-65
2021/07/07 03:00:25;;;;;;;8.30;3.90;;;13.00;98.50;;;;;;5028089;28;20021;-66
2021/07/07 03:02:51;;;;;;;9.95;4.50;;;13.00;98.50;;;;;;5032551;28;20032;-65
2021/07/07 03:05:17;;;;;;;10.95;4.78;;;13.00;98.80;;;;;;5032915;28;20029;-65
2021/07/07 03:07:43;;;;;;;9.50;5.18;;;13.00;98.60;;;;;;5031979;28;20056;-66
2021/07/07 03:10:10;;;;;;;13.02;4.55;;;13.00;98.60;;;;;;5016097;28;20061;-66
2021/07/07 03:12:36;;;;;;;6.95;5.10;;;13.00;98.60;;;;;;5030129;28;20026;-65
2021/07/07 03:15:03;;;;;;;5.75;4.65;;;13.00;98.70;;;;;;5027140;28;20509;-65
2021/07/07 03:17:28;;;;;;;10.82;4.20;;;13.10;98.80;;;;;;5028515;28;20033;-65
2021/07/07 03:19:54;;;;;;;9.52;5.10;;;13.20;98.80;;;;;;5032133;28;20026;-65
2021/07/07 03:22:19;;;;;;;7.75;5.80;;;13.20;98.80;;;;;;5034483;28;20031;-65
2021/07/07 03:24:45;;;;;;;9.23;5.88;;;13.30;98.80;;;;;;5032819;28;20028;-66
2021/07/07 03:27:11;;;;;;;8.43;4.68;;;13.40;98.80;;;;;;5032208;28;20075;-65
2021/07/07 03:29:36;;;;;;;7.85;5.50;;;13.40;98.70;;;;;;5029570;28;20029;-65
2021/07/07 03:32:02;;;;;;;17.88;7.13;;;13.50;98.70;;;;;;5031378;28;20041;-65
2021/07/07 03:34:28;;;;;;;6.88;5.15;;;13.60;98.70;;;;;;5032576;28;20017;-65
2021/07/07 03:36:53;;;;;;;9.85;5.63;;;13.60;98.60;;;;;;5034737;28;20033;-65
2021/07/07 03:39:19;;;;;;;7.97;5.22;;;13.70;98.60;;;;;;5030300;28;20030;-66
2021/07/07 03:41:44;;;;;;;8.07;5.18;;;13.70;98.50;;;;;;5029175;28;20060;-65
2021/07/07 03:44:10;;;;;;;8.93;5.82;;;13.70;98.50;;;;;;5032105;28;20038;-65
2021/07/07 03:46:35;;;;;;;9.48;5.95;;;13.70;98.40;;;;;;5032606;28;20057;-65
2021/07/07 03:49:01;;;;;;;12.52;6.55;;;13.70;98.40;;;;;;5019140;28;20071;-66
2021/07/07 03:51:26;;;;;;;8.07;4.85;;;13.70;98.40;;;;;;5028200;28;20434;-65
2021/07/07 03:53:52;;;;;;;8.75;5.15;;;13.70;98.40;;;;;;5033470;28;20491;-65
2021/07/07 03:56:17;;;;;;;7.15;4.93;;;13.60;98.70;;;;;;5033779;28;20056;-65
2021/07/07 03:58:43;;;;;;;11.00;5.30;;;13.60;98.40;;;;;;5024254;28;20113;-65
2021/07/07 04:01:08;;;;;;;9.20;5.90;;;13.60;98.40;;;;;;5027175;28;20025;-66
2021/07/07 04:03:34;;;;;;;10.52;5.55;;;13.60;98.40;;;;;;5031607;28;20506;-65
2021/07/07 04:05:59;;;;;;;7.38;5.55;;;13.60;98.40;;;;;;5032899;28;20419;-65
2021/07/07 04:08:25;;;;;;;8.43;5.28;;;13.50;98.50;;;;;;5031639;28;20040;-65
2021/07/07 04:10:50;;;;;;;10.02;5.30;;;13.50;98.50;;;;;;5021971;28;20093;-66
2021/07/07 04:13:16;;;;;;;5.95;5.13;;;13.50;98.50;;;;;;5030814;28;20426;-65
2021/07/07 04:15:41;;;;;;;7.93;5.70;;;13.50;98.60;;;;;;5032633;28;20050;-67
2021/07/07 04:18:09;;;;;;;13.52;5.85;;;13.50;98.60;;;;;;5029995;28;20029;-65
2021/07/07 04:20:35;;;;;;;10.75;5.90;;;13.50;98.60;;;;;;5021223;28;20065;-66
2021/07/07 04:23:01;;;;;;;8.00;5.03;;;13.50;98.60;;;;;;5024938;28;20030;-66
2021/07/07 04:25:26;;;;;;;8.80;5.38;;;13.50;98.60;;;;;;5030349;28;20366;-66
2021/07/07 04:27:52;;;;;;;6.32;4.70;;;13.50;98.50;;;;;;5025679;28;20414;-66
2021/07/07 04:30:19;;;;;;;11.52;6.13;;;13.60;98.60;;;;;;5026465;28;20049;-65
2021/07/07 04:32:46;;;;;;;12.23;5.57;;;13.60;98.60;;;;;;5026384;28;20049;-66
2021/07/07 04:35:13;;;;;;;11.82;5.13;;;13.70;98.60;;;;;;5032291;28;20029;-66
2021/07/07 04:37:39;;;;;;;10.85;5.78;;;13.80;98.60;;;;;;5024801;28;20029;-66
2021/07/07 04:40:09;;;;;;;11.57;5.60;;;14.00;98.60;;;;;;5027714;28;20037;-66
2021/07/07 04:42:36;;;;;;;10.55;4.97;;;14.10;98.50;;;;;;5031429;28;20126;-65
2021/07/07 04:45:02;;;;;;;12.70;5.22;;;14.20;98.30;;;;;;5032437;28;20664;-66
2021/07/07 04:47:28;;;;;;;6.75;4.68;;;14.40;98.20;;;;;;5029217;28;20025;-66
2021/07/07 04:49:53;;;;;;;8.57;4.85;;;14.50;98.10;;;;;;5033348;28;20021;-65
2021/07/07 04:52:18;;;;;;;8.38;4.85;;;14.50;97.90;;;;;;5026937;28;20025;-66
2021/07/07 04:54:44;;;;;;;6.97;4.90;;;14.60;97.80;;;;;;5019957;28;20033;-66
2021/07/07 04:57:10;;;;;;;9.00;5.35;;;14.70;97.80;;;;;;5024095;28;20488;-66
2021/07/07 04:59:35;;;;;;;6.47;4.72;;;14.70;98.00;;;;;;5019389;28;20077;-66
2021/07/07 05:02:01;;;;;;;8.35;5.28;;;14.80;97.60;;;;;;5025924;28;20541;-66
2021/07/07 05:04:26;;;;;;;6.95;5.45;;;14.80;97.60;;;;;;5024276;28;20431;-65
2021/07/07 05:06:52;;;;;;;10.57;5.25;;;14.90;97.40;;;;;;5029076;28;20022;-65
2021/07/07 05:09:17;;;;;;;9.32;5.57;;;14.90;97.30;;;;;;5028728;28;20371;-66
2021/07/07 05:11:43;;;;;;;13.63;6.63;;;14.90;97.20;;;;;;5022174;28;20036;-65
2021/07/07 05:14:08;;;;;;;11.40;5.50;;;14.90;97.10;;;;;;5025228;28;20029;-66
2021/07/07 05:16:34;;;;;;;7.07;4.80;;;14.90;97.40;;;;;;5029896;28;20041;-66
2021/07/07 05:18:59;;;;;;;10.20;4.53;;;14.90;97.10;;;;;;5029076;28;20117;-65
2021/07/07 05:21:25;;;;;;;8.48;4.60;;;14.90;97.10;;;;;;5030589;28;20025;-65
2021/07/07 05:23:50;;;;;;;8.55;4.88;;;14.90;97.00;;;;;;5029350;28;20033;-66
2021/07/07 05:26:16;;;;;;;9.52;4.68;;;15.00;97.00;;;;;;5028533;28;20038;-66
2021/07/07 05:28:42;;;;;;;8.82;4.90;;;15.10;97.00;;;;;;5028323;28;20480;-66
2021/07/07 05:31:08;;;;;;;7.63;4.38;;;15.10;97.00;;;;;;5025086;28;20025;-65
2021/07/07 05:33:35;;;;;;;11.38;4.47;;;15.30;96.90;;;;;;5021889;28;20021;-66
2021/07/07 05:36:04;;;;;;;10.52;4.43;;;15.30;96.90;;;;;;5026555;28;20079;-66
2021/07/07 05:38:29;;;;;;;6.60;3.92;;;15.40;96.80;;;;;;5028517;28;20477;-65
2021/07/07 05:40:55;;;;;;;8.20;4.68;;;15.50;96.70;;;;;;5022675;28;20036;-66
2021/07/07 05:43:22;;;;;;;5.15;4.60;;;15.50;96.70;;;;;;5021124;28;20445;-66
2021/07/07 05:45:48;;;;;;;9.32;4.72;;;15.60;96.60;;;;;;5027122;28;20424;-66
2021/07/07 05:48:14;;;;;;;9.98;4.82;;;15.70;96.50;;;;;;5029235;28;20033;-66
2021/07/07 05:50:39;;;;;;;6.68;4.25;;;15.70;96.40;;;;;;5024418;28;20026;-66
2021/07/07 05:53:05;;;;;;;10.20;4.82;;;15.80;96.40;;;;;;5029624;28;20026;-65
2021/07/07 05:55:30;;;;;;;11.38;4.90;;;15.80;96.40;;;;;;5023890;28;20088;-67
2021/07/07 05:57:56;;;;;;;6.90;4.55;;;15.90;96.30;;;;;;5018983;28;20446;-66
2021/07/07 06:00:25;;;;;;;9.25;4.47;;;16.00;96.30;;;;;;5029488;28;20029;-65
2021/07/07 06:02:52;;;;;;;10.85;4.68;;;16.10;96.20;;;;;;5031028;28;20034;-65
2021/07/07 06:05:18;;;;;;;12.32;4.47;;;16.10;96.10;;;;;;5025524;28;20037;-67
2021/07/07 06:07:44;;;;;;;9.52;4.35;;;16.20;96.00;;;;;;5041922;28;20021;-65
2021/07/07 06:10:16;;;;;;;9.27;3.83;;;16.30;96.00;;;;;;5034087;28;20040;-67
2021/07/07 06:12:42;;;;;;;10.68;4.00;;;16.30;95.90;;;;;;5032277;28;20112;-67
2021/07/07 06:15:14;;;;;;;8.48;3.85;;;16.40;95.80;;;;;;5029583;28;20191;-68
2021/07/07 06:17:40;;;;;;;8.50;4.15;;;16.50;95.70;;;;;;5036768;28;20029;-66
2021/07/07 06:20:15;;;;;;;7.07;4.07;;;16.50;95.70;;;;;;5034901;28;20029;-66
2021/07/07 06:22:42;;;;;;;6.93;4.22;;;16.60;95.60;;;;;;5030525;28;20036;-67
2021/07/07 06:25:11;;;;;;;6.95;4.10;;;16.60;95.50;;;;;;5030299;28;20059;-67
2021/07/07 06:27:39;;;;;;;9.73;3.95;;;16.70;95.40;;;;;;5032179;28;20021;-66
2021/07/07 06:30:10;;;;;;;12.63;4.35;;;16.80;95.20;;;;;;5031972;28;20071;-66
2021/07/07 06:32:35;;;;;;;9.77;3.42;;;16.80;95.20;;;;;;5031781;28;20024;-67
2021/07/07 06:35:01;;;;;;;10.52;3.97;;;16.90;95.10;;;;;;5035330;28;20045;-66
2021/07/07 06:37:29;;;;;;;12.38;4.20;;;17.00;95.00;;;;;;5033623;28;20032;-67
2021/07/07 06:39:54;;;;;;;8.43;3.58;;;17.20;95.00;;;;;;5035495;28;20125;-66
2021/07/07 06:42:20;;;;;;;8.05;3.35;;;17.30;94.80;;;;;;5035370;28;20523;-66
2021/07/07 06:44:45;;;;;;;7.78;3.72;;;17.40;94.80;;;;;;5035152;28;20076;-66
2021/07/07 06:47:11;;;;;;;9.88;3.92;;;17.70;94.80;;;;;;5031489;28;20030;-67
2021/07/07 06:49:37;;;;;;;11.30;2.83;;;18.00;94.40;;;;;;5035205;28;20456;-66
2021/07/07 06:52:03;;;;;;;6.05;2.72;;;18.30;94.00;;;;;;5033325;28;20030;-66
2021/07/07 06:54:29;;;;;;;9.63;3.05;;;18.60;93.80;;;;;;5034582;28;20037;-66
2021/07/07 06:56:55;;;;;;;5.25;2.42;;;18.80;93.60;;;;;;5034580;28;20092;-66
2021/07/07 06:59:20;;;;;;;9.07;2.72;;;19.10;92.80;;;;;;5033563;28;20025;-67
2021/07/07 07:01:46;;;;;;;6.75;2.28;;;19.20;92.10;;;;;;5023249;28;20029;-66
2021/07/07 07:04:11;;;;;;;10.55;3.53;;;19.30;91.90;;;;;;5025782;28;20071;-66
2021/07/07 07:06:37;;;;;;;7.90;2.05;;;19.40;91.40;;;;;;5033525;28;20491;-66
2021/07/07 07:09:04;;;;;;;5.95;1.60;;;19.40;91.30;;;;;;5034241;28;20121;-66
2021/07/07 07:11:30;;;;;;;5.82;1.60;;;19.40;91.10;;;;;;5030332;28;20030;-66
2021/07/07 07:13:56;;;;;;;5.97;1.55;;;19.40;90.90;;;;;;5017994;28;20357;-66
2021/07/07 07:16:21;;;;;;;5.88;2.30;;;19.40;90.70;;;;;;5034258;28;20408;-67
2021/07/07 07:18:47;;;;;;;5.38;1.35;;;19.30;90.40;;;;;;5025408;28;20041;-66
2021/07/07 07:21:13;;;;;;;4.45;1.42;;;19.30;90.60;;;;;;5027574;28;20087;-66
2021/07/07 07:23:39;;;;;;;4.93;1.30;;;19.30;90.40;;;;;;5033985;28;20072;-66
2021/07/07 07:26:04;;;;;;;4.93;1.13;;;19.40;90.40;;;;;;5031575;28;20028;-67
2021/07/07 07:28:30;;;;;;;8.52;1.42;;;19.50;90.30;;;;;;5035392;28;20037;-66
2021/07/07 07:30:59;;;;;;;6.88;1.30;;;19.60;89.60;;;;;;5019517;28;20033;-66
2021/07/07 07:33:25;;;;;;;7.05;1.10;;;19.80;89.10;;;;;;5027877;28;20049;-67
2021/07/07 07:35:51;;;;;;;6.13;1.15;;;19.90;88.40;;;;;;5031305;28;20116;-66
2021/07/07 07:38:26;;;;;;;6.53;1.30;;;20.00;87.40;;;;;;5034624;28;20029;-67
2021/07/07 07:40:52;;;;;;;5.90;1.00;;;20.00;87.60;;;;;;5031732;28;20472;-67
2021/07/07 07:43:22;;;;;;;7.88;1.50;;;20.00;86.90;;;;;;5034248;28;20040;-66
2021/07/07 07:45:50;;;;;;;4.53;0.98;;;19.90;86.70;;;;;;5030931;28;20037;-66
2021/07/07 07:48:20;;;;;;;3.95;0.98;;;19.90;86.30;;;;;;5029628;28;20045;-67
2021/07/07 07:50:46;;;;;;;5.25;0.90;;;19.90;86.80;;;;;;5025965;28;20109;-66
2021/07/07 07:53:11;;;;;;;3.95;1.00;;;20.00;86.00;;;;;;5017518;28;20533;-67
2021/07/07 07:55:37;;;;;;;5.88;1.30;;;20.10;86.00;;;;;;5033148;28;20093;-67
2021/07/07 07:58:03;;;;;;;5.07;1.10;;;20.20;85.90;;;;;;5022994;28;20092;-66
2021/07/07 08:00:29;;;;;;;6.35;1.23;;;20.30;85.60;;;;;;5029149;28;20030;-68
2021/07/07 08:02:55;;;;;;;7.85;2.35;;;20.40;85.40;;;;;;5028025;28;20021;-66
2021/07/07 08:05:21;;;;;;;4.22;1.05;;;20.40;84.70;;;;;;5021184;28;20484;-66
2021/07/07 08:07:47;;;;;;;5.32;0.90;;;20.40;84.50;;;;;;5034467;28;20467;-67
2021/07/07 08:10:18;;;;;;;2.75;0.60;;;20.50;84.60;;;;;;5032286;28;20404;-67
2021/07/07 08:12:43;;;;;;;4.88;1.00;;;20.60;84.10;;;;;;5030054;28;20507;-67
2021/07/07 08:15:10;;;;;;;4.10;0.77;;;20.70;83.60;;;;;;5031322;28;20037;-67
2021/07/07 08:17:36;;;;;;;4.07;0.73;;;20.70;83.50;;;;;;5031816;28;20021;-67
2021/07/07 08:20:06;;;;;;;3.88;0.68;;;20.80;83.50;;;;;;5032081;28;20033;-67
2021/07/07 08:22:31;;;;;;;4.60;0.77;;;20.90;83.40;;;;;;5027426;28;20033;-67
2021/07/07 08:24:57;;;;;;;4.88;1.33;;;21.00;83.50;;;;;;5025409;28;20033;-67
2021/07/07 08:27:22;;;;;;;3.88;0.70;;;21.10;83.00;;;;;;5033385;28;20043;-67
2021/07/07 08:29:48;;;;;;;3.58;0.50;;;21.20;82.30;;;;;;5031682;28;20048;-67
2021/07/07 08:32:13;;;;;;;4.95;0.70;;;21.20;81.90;;;;;;5028612;28;20040;-68
2021/07/07 08:34:39;;;;;;;2.65;0.65;;;21.30;80.70;;;;;;5031851;28;20048;-68
2021/07/07 08:37:04;;;;;;;5.60;0.90;;;21.20;80.50;;;;;;5031886;28;20013;-67
2021/07/07 08:39:30;;;;;;;3.60;0.75;;;21.30;79.20;;;;;;5031050;28;20025;-67
2021/07/07 08:41:56;;;;;;;4.72;0.68;;;21.10;79.40;;;;;;5032925;28;20036;-67
2021/07/07 08:44:22;;;;;;;4.53;0.70;;;21.20;80.20;;;;;;5026132;28;20032;-67
2021/07/07 08:46:48;;;;;;;5.88;0.70;;;21.20;79.80;;;;;;5027127;28;20464;-67
2021/07/07 08:49:14;;;;;;;3.90;0.80;;;21.30;79.70;;;;;;5028169;28;20516;-67
2021/07/07 08:51:43;;;;;;;6.57;1.10;;;21.40;79.00;;;;;;5027543;28;20116;-67
2021/07/07 08:54:09;;;;;;;5.28;0.80;;;21.50;78.90;;;;;;5019302;28;20071;-67
2021/07/07 08:56:41;;;;;;;5.55;0.70;;;21.60;78.10;;;;;;5033401;28;20029;-67
2021/07/07 08:59:07;;;;;;;8.83;1.67;;;21.60;77.30;;;;;;5020332;28;20515;-67
2021/07/07 09:01:59;;;;;;;3.28;0.50;;;21.80;76.90;;;;;;5030936;28;20033;-67
2021/07/07 09:04:33;;;;;;;4.93;0.77;;;21.80;77.00;;;;;;5030296;28;20072;-67
2021/07/07 09:06:59;;;;;;;3.75;0.50;;;21.90;76.20;;;;;;5031280;28;20542;-67
2021/07/07 09:09:42;;;;;;;5.43;0.60;;;22.00;76.50;;;;;;5032491;28;20495;-67
2021/07/07 09:12:24;;;;;;;4.18;0.65;;;22.10;75.50;;;;;;5032195;28;20048;-67
2021/07/07 09:15:01;;;;;;;3.20;0.40;;;22.20;75.20;;;;;;5030973;28;20049;-67
2021/07/07 09:17:26;;;;;;;5.85;0.50;;;22.30;74.40;;;;;;5032043;28;20033;-67
2021/07/07 09:19:52;;;;;;;3.28;0.50;;;22.40;73.60;;;;;;5032127;28;20041;-67
2021/07/07 09:22:24;;;;;;;4.82;0.60;;;22.60;73.00;;;;;;5031408;28;20388;-67
2021/07/07 09:24:59;;;;;;;4.60;0.82;;;22.70;72.10;;;;;;5033094;28;20488;-67
2021/07/07 09:27:36;;;;;;;5.32;0.65;;;22.70;71.70;;;;;;5031853;28;20033;-68
2021/07/07 09:30:08;;;;;;;5.75;0.50;;;22.70;71.30;;;;;;5032337;28;20123;-67
2021/07/07 09:32:48;;;;;;;5.70;0.55;;;22.50;71.70;;;;;;5030843;28;20025;-67
2021/07/07 09:35:18;;;;;;;4.28;0.55;;;22.50;71.40;;;;;;5027698;28;20033;-67
2021/07/07 09:37:56;;;;;;;5.93;0.63;;;22.30;72.50;;;;;;5030839;28;20094;-67
2021/07/07 09:40:23;;;;;;;4.38;0.50;;;22.30;72.60;;;;;;5030224;28;20051;-67
2021/07/07 09:42:49;;;;;;;4.68;0.50;;;22.30;72.60;;;;;;5032707;28;20021;-67
2021/07/07 09:45:19;;;;;;;7.40;0.70;;;22.50;72.20;;;;;;5032157;28;20087;-67
2021/07/07 09:47:45;;;;;;;5.22;0.65;;;22.50;71.90;;;;;;5030818;28;20025;-67
2021/07/07 09:50:12;;;;;;;5.53;0.63;;;22.50;70.30;;;;;;5031995;28;20483;-68
2021/07/07 09:52:38;;;;;;;5.15;0.70;;;22.40;69.90;;;;;;5021824;28;20053;-67
2021/07/07 09:55:09;;;;;;;6.15;0.55;;;22.30;70.10;;;;;;5029680;28;20498;-67
2021/07/07 09:57:44;;;;;;;4.20;0.50;;;22.30;70.30;;;;;;5031041;28;20027;-66
2021/07/07 10:00:20;;;;;;;2.90;0.63;;;22.30;70.80;;;;;;5026377;28;20108;-67
2021/07/07 10:02:52;;;;;;;3.72;0.60;;;22.40;71.50;;;;;;5040231;28;20049;-67
2021/07/07 10:05:19;;;;;;;4.30;0.93;;;22.60;71.50;;;;;;5030058;28;20034;-67
2021/07/07 10:07:46;;;;;;;4.63;0.50;;;22.80;69.90;;;;;;5025526;28;20375;-67
2021/07/07 10:10:14;;;;;;;2.35;0.57;;;22.90;70.40;;;;;;5027520;28;20030;-68
2021/07/07 10:12:43;;;;;;;4.97;0.57;;;22.90;70.00;;;;;;5032552;28;20189;-68
2021/07/07 10:15:11;;;;;;;5.63;0.65;;;22.80;69.40;;;;;;5032147;28;20405;-68
2021/07/07 10:17:38;;;;;;;3.70;0.60;;;22.80;69.50;;;;;;5028738;28;20462;-67
2021/07/07 10:20:09;;;;;;;5.20;0.70;;;22.80;70.10;;;;;;5024901;28;20464;-67
2021/07/07 10:22:37;;;;;;;3.50;0.70;;;22.90;71.00;;;;;;5019995;28;20125;-67
2021/07/07 10:25:05;;;;;;;6.03;0.90;;;23.10;70.30;;;;;;5027201;28;20025;-64
2021/07/07 10:27:31;;;;;;;5.05;0.60;;;23.20;69.30;;;;;;5028355;28;20029;-65
2021/07/07 10:29:57;;;;;;;3.60;0.70;;;23.30;68.40;;;;;;5023905;28;20026;-64
2021/07/07 10:32:25;;;;;;;5.40;0.57;;;23.40;68.90;;;;;;5032530;28;20434;-66
2021/07/07 10:34:50;;;;;;;3.40;0.60;;;23.40;68.20;;;;;;5029367;28;20087;-67
2021/07/07 10:37:22;;;;;;;4.03;0.57;;;23.50;67.30;;;;;;5028425;28;20033;-66
2021/07/07 10:39:47;;;;;;;4.38;0.45;;;23.40;67.30;;;;;;5032424;28;20065;-67
2021/07/07 10:42:13;;;;;;;3.83;1.05;;;23.30;66.10;;;;;;5031149;28;20515;-66
2021/07/07 10:44:38;;;;;;;4.05;0.50;;;23.30;66.10;;;;;;5031138;28;20112;-66
2021/07/07 10:47:09;;;;;;;5.00;0.50;;;23.20;65.80;;;;;;5014600;28;20484;-66
2021/07/07 10:49:45;;;;;;;4.55;0.40;;;23.20;66.20;;;;;;5029610;28;20108;-66
2021/07/07 10:52:17;;;;;;;2.50;0.43;;;23.20;66.80;;;;;;5035868;28;20025;-67
2021/07/07 10:54:55;;;;;;;3.97;0.50;;;23.20;66.60;;;;;;5035858;28;20060;-66
2021/07/07 10:57:23;;;;;;;3.38;0.70;;;23.20;66.10;;;;;;5036011;28;20029;-66
2021/07/07 10:59:52;;;;;;;2.85;0.47;;;23.40;67.10;;;;;;5035638;28;20105;-66
2021/07/07 11:02:19;;;;;;;4.65;0.65;;;23.50;67.00;;;;;;5035237;28;20357;-67
2021/07/07 11:04:50;;;;;;;3.45;0.80;;;23.80;67.10;;;;;;5035149;28;20025;-67
2021/07/07 11:07:27;;;;;;;2.85;0.57;;;24.00;67.30;;;;;;5035910;28;20448;-66
2021/07/07 11:09:57;;;;;;;2.20;0.52;;;24.30;64.70;;;;;;5035672;28;20143;-66
2021/07/07 11:12:35;;;;;;;5.53;0.50;;;24.30;63.60;;;;;;5024010;28;20025;-66
2021/07/07 11:15:10;;;;;;;2.38;0.63;;;24.30;63.50;;;;;;5033861;28;20684;-67
2021/07/07 11:17:38;;;;;;;3.13;0.55;;;24.20;62.70;;;;;;5035251;28;20026;-66
2021/07/07 11:20:09;;;;;;;5.68;0.50;;;24.10;63.30;;;;;;5025047;28;20032;-66
2021/07/07 11:22:36;;;;;;;6.25;0.60;;;24.10;63.90;;;;;;5034304;28;20049;-66
2021/07/07 11:25:06;;;;;;;2.55;0.50;;;24.20;63.60;;;;;;5035188;28;20036;-66
2021/07/07 11:27:33;;;;;;;3.90;0.50;;;24.20;63.50;;;;;;5034931;28;20446;-67
2021/07/07 11:29:59;;;;;;;3.30;0.60;;;24.20;64.40;;;;;;5034846;28;20100;-66
2021/07/07 11:32:46;;;;;;;3.60;0.50;;;24.50;62.80;;;;;;5032735;28;20021;-67
2021/07/07 11:35:14;;;;;;;1.75;0.35;;;24.50;61.40;;;;;;5035455;28;20029;-68
2021/07/07 11:37:42;;;;;;;2.15;0.52;;;24.50;60.80;;;;;;5022770;28;20041;-67
2021/07/07 11:40:14;;;;;;;2.60;0.43;;;24.40;60.40;;;;;;5033017;28;20087;-67
2021/07/07 11:42:58;;;;;;;1.58;0.40;;;24.50;59.90;;;;;;5031766;28;20029;-67
2021/07/07 11:45:46;;;;;;;2.20;0.40;;;24.70;58.00;;;;;;5022908;28;20083;-66
2021/07/07 11:48:35;;;;;;;1.00;0.30;;;24.60;58.30;;;;;;5032202;28;20377;-67
2021/07/07 11:51:06;;;;;;;2.30;0.30;;;24.50;57.70;;;;;;5032319;28;20052;-67
2021/07/07 11:53:46;;;;;;;3.28;0.40;;;24.40;58.00;;;;;;5025129;28;20029;-67
2021/07/07 11:56:16;;;;;;;1.52;0.45;;;24.50;58.30;;;;;;5019963;28;20034;-66
2021/07/07 11:59:04;;;;;;;2.22;0.38;;;24.70;58.30;;;;;;5029160;28;20480;-67
2021/07/07 12:01:32;;;;;;;1.70;0.40;;;24.90;57.50;;;;;;5029549;28;20112;-67
2021/07/07 12:04:09;;;;;;;1.55;0.40;;;25.10;56.20;;;;;;5020025;28;20026;-66
2021/07/07 12:06:41;;;;;;;1.63;0.40;;;25.40;56.00;;;;;;5032692;28;20379;-67
2021/07/07 12:09:18;;;;;;;5.43;0.50;;;25.50;56.00;;;;;;5033852;28;20025;-66
2021/07/07 12:12:03;;;;;;;1.67;0.40;;;25.50;56.30;;;;;;5034441;28;20572;-66
2021/07/07 12:14:31;;;;;;;4.72;0.43;;;25.40;56.60;;;;;;5033964;28;20021;-67
2021/07/07 12:16:57;;;;;;;4.22;0.50;;;25.30;56.70;;;;;;5029915;28;20029;-67
2021/07/07 12:19:23;;;;;;;4.10;0.40;;;25.30;57.50;;;;;;5023729;28;20028;-67
2021/07/07 12:21:51;;;;;;;1.70;0.45;;;25.40;57.80;;;;;;5034104;28;20100;-67
2021/07/07 12:24:22;;;;;;;3.10;0.50;;;25.60;57.10;;;;;;5024827;28;20025;-67
2021/07/07 12:27:00;;;;;;;1.83;0.60;;;25.80;55.80;;;;;;5030478;28;20037;-66
2021/07/07 12:29:28;;;;;;;2.97;0.50;;;25.90;56.10;;;;;;5033809;28;20112;-67
2021/07/07 12:32:03;;;;;;;2.78;0.40;;;25.90;55.30;;;;;;5031839;28;20087;-67
2021/07/07 12:34:32;;;;;;;2.65;0.30;;;26.00;55.00;;;;;;5016762;28;20472;-67
2021/07/07 12:36:59;;;;;;;1.63;0.50;;;26.00;54.60;;;;;;5028493;28;20033;-67
2021/07/07 12:39:30;;;;;;;1.50;0.40;;;26.00;54.60;;;;;;5028357;28;20029;-67
2021/07/07 12:42:02;;;;;;;1.63;0.50;;;25.80;54.20;;;;;;5028925;28;20380;-67
2021/07/07 12:44:30;;;;;;;2.92;0.50;;;25.70;54.30;;;;;;5023468;28;20796;-66
2021/07/07 12:47:04;;;;;;;2.63;0.50;;;25.60;54.90;;;;;;5020126;28;20389;-66
2021/07/07 12:49:46;;;;;;;2.45;0.55;;;25.50;54.80;;;;;;5025105;28;20026;-66